sensor_id;sensor_type;location;lat;lon;timestamp;pressure;altitude;pressure_sealevel;temperature
49154;BMP280;49455;52.252;9.124;2022-08-26T00:04:24;99331.69;;;23.63
49154;BMP280;49455;52.252;9.124;2022-08-26T06:54:22;99310.50;;;23.93
49154;BMP280;49455;52.252;9.124;2022-08-26T06:59:23;99323.50;;;23.98
49154;BMP280;49455;52.252;9.124;2022-08-26T07:04:24;99323.34;;;24.03
49154;BMP280;49455;52.252;9.124;2022-08-26T07:09:27;99328.97;;;23.93
49154;BMP280;49455;52.252;9.124;2022-08-26T07:19:28;99329.41;;;24.33
49154;BMP280;49455;52.252;9.124;2022-08-26T07:24:28;99319.97;;;24.51
49154;BMP280;49455;52.252;9.124;2022-08-26T07:29:29;99325.38;;;24.73
49154;BMP280;49455;52.252;9.124;2022-08-26T07:34:30;99327.66;;;25.08
49154;BMP280;49455;52.252;9.124;2022-08-26T07:39:30;99332.69;;;25.38
49154;BMP280;49455;52.252;9.124;2022-08-26T07:44:31;99339.22;;;25.52
49154;BMP280;49455;52.252;9.124;2022-08-26T07:49:32;99339.16;;;25.76
49154;BMP280;49455;52.252;9.124;2022-08-26T07:54:32;99342.81;;;25.72
49154;BMP280;49455;52.252;9.124;2022-08-26T07:59:32;99347.72;;;25.82
49154;BMP280;49455;52.252;9.124;2022-08-26T08:04:33;99342.16;;;26.11
49154;BMP280;49455;52.252;9.124;2022-08-26T08:09:33;99351.72;;;26.15
49154;BMP280;49455;52.252;9.124;2022-08-26T08:14:34;99350.34;;;26.26
49154;BMP280;49455;52.252;9.124;2022-08-26T08:19:34;99351.34;;;26.45
49154;BMP280;49455;52.252;9.124;2022-08-26T08:24:36;99351.19;;;26.48
49154;BMP280;49455;52.252;9.124;2022-08-26T08:29:37;99345.63;;;26.75
49154;BMP280;49455;52.252;9.124;2022-08-26T08:34:37;99346.41;;;26.98
49154;BMP280;49455;52.252;9.124;2022-08-26T08:39:38;99355.25;;;26.97
49154;BMP280;49455;52.252;9.124;2022-08-26T08:44:41;99346.56;;;27.13
49154;BMP280;49455;52.252;9.124;2022-08-26T08:49:42;99346.03;;;27.25
49154;BMP280;49455;52.252;9.124;2022-08-26T08:54:43;99345.94;;;27.08
49154;BMP280;49455;52.252;9.124;2022-08-26T08:59:49;99331.44;;;27.15
49154;BMP280;49455;52.252;9.124;2022-08-26T09:15:33;99326.63;;;27.63
49154;BMP280;49455;52.252;9.124;2022-08-26T09:26:00;99328.41;;;27.80
49154;BMP280;49455;52.252;9.124;2022-08-26T09:31:23;99334.69;;;27.41
49154;BMP280;49455;52.252;9.124;2022-08-26T09:36:36;99333.41;;;27.50
49154;BMP280;49455;52.252;9.124;2022-08-26T09:41:37;99320.22;;;27.66
49154;BMP280;49455;52.252;9.124;2022-08-26T09:46:42;99315.56;;;27.90
49154;BMP280;49455;52.252;9.124;2022-08-26T09:51:43;99318.06;;;28.11
49154;BMP280;49455;52.252;9.124;2022-08-26T09:56:43;99317.03;;;28.31
49154;BMP280;49455;52.252;9.124;2022-08-26T10:01:44;99315.50;;;28.09
49154;BMP280;49455;52.252;9.124;2022-08-26T10:07:03;99321.31;;;28.52
49154;BMP280;49455;52.252;9.124;2022-08-26T10:12:16;99297.47;;;28.67
49154;BMP280;49455;52.252;9.124;2022-08-26T10:17:28;99292.59;;;28.42
49154;BMP280;49455;52.252;9.124;2022-08-26T10:28:10;99262.06;;;28.49
49154;BMP280;49455;52.252;9.124;2022-08-26T10:33:16;99267.78;;;28.91
49154;BMP280;49455;52.252;9.124;2022-08-26T10:38:23;99283.84;;;29.07
49154;BMP280;49455;52.252;9.124;2022-08-26T10:43:36;99279.94;;;28.80
49154;BMP280;49455;52.252;9.124;2022-08-26T10:48:44;99272.19;;;29.41
49154;BMP280;49455;52.252;9.124;2022-08-26T10:54:16;99264.41;;;29.84
49154;BMP280;49455;52.252;9.124;2022-08-26T10:59:33;99259.88;;;30.45
49154;BMP280;49455;52.252;9.124;2022-08-26T11:09:52;99251.75;;;30.03
49154;BMP280;49455;52.252;9.124;2022-08-26T11:14:53;99255.97;;;30.22
49154;BMP280;49455;52.252;9.124;2022-08-26T11:35:10;99237.38;;;29.29
49154;BMP280;49455;52.252;9.124;2022-08-26T11:40:18;99246.19;;;28.97
49154;BMP280;49455;52.252;9.124;2022-08-26T11:45:24;99227.69;;;28.79
49154;BMP280;49455;52.252;9.124;2022-08-26T11:50:27;99233.25;;;28.58
49154;BMP280;49455;52.252;9.124;2022-08-26T11:55:29;99221.94;;;28.87
49154;BMP280;49455;52.252;9.124;2022-08-26T12:00:33;99214.75;;;28.88
49154;BMP280;49455;52.252;9.124;2022-08-26T12:05:37;99201.16;;;28.11
49154;BMP280;49455;52.252;9.124;2022-08-26T12:10:41;99214.31;;;27.42
49154;BMP280;49455;52.252;9.124;2022-08-26T12:15:51;99223.47;;;26.60
49154;BMP280;49455;52.252;9.124;2022-08-26T12:20:52;99251.13;;;25.92
49154;BMP280;49455;52.252;9.124;2022-08-26T12:26:02;99237.38;;;25.39
49154;BMP280;49455;52.252;9.124;2022-08-26T12:31:05;99247.44;;;24.83
49154;BMP280;49455;52.252;9.124;2022-08-26T12:36:05;99232.72;;;24.54
49154;BMP280;49455;52.252;9.124;2022-08-26T12:41:06;99206.34;;;23.50
49154;BMP280;49455;52.252;9.124;2022-08-26T12:46:10;99205.09;;;23.61
49154;BMP280;49455;52.252;9.124;2022-08-26T12:51:22;99213.19;;;23.82
49154;BMP280;49455;52.252;9.124;2022-08-26T12:56:28;99209.88;;;24.01
49154;BMP280;49455;52.252;9.124;2022-08-26T13:01:56;99234.09;;;23.88
49154;BMP280;49455;52.252;9.124;2022-08-26T13:07:25;99222.03;;;24.32
49154;BMP280;49455;52.252;9.124;2022-08-26T13:12:28;99227.00;;;24.90
49154;BMP280;49455;52.252;9.124;2022-08-26T13:17:29;99226.03;;;24.68
49154;BMP280;49455;52.252;9.124;2022-08-26T13:22:30;99246.34;;;24.66
49154;BMP280;49455;52.252;9.124;2022-08-26T13:27:30;99264.50;;;23.45
49154;BMP280;49455;52.252;9.124;2022-08-26T13:32:31;99271.28;;;22.95
49154;BMP280;49455;52.252;9.124;2022-08-26T13:37:31;99263.19;;;23.03
49154;BMP280;49455;52.252;9.124;2022-08-26T13:42:32;99259.75;;;22.99
49154;BMP280;49455;52.252;9.124;2022-08-26T13:47:32;99257.00;;;23.32
49154;BMP280;49455;52.252;9.124;2022-08-26T13:52:33;99232.63;;;23.24
49154;BMP280;49455;52.252;9.124;2022-08-26T13:57:33;99222.50;;;23.11
49154;BMP280;49455;52.252;9.124;2022-08-26T14:02:34;99250.19;;;23.25
49154;BMP280;49455;52.252;9.124;2022-08-26T14:07:34;99245.56;;;23.32
49154;BMP280;49455;52.252;9.124;2022-08-26T14:12:35;99234.88;;;23.37
49154;BMP280;49455;52.252;9.124;2022-08-26T14:17:35;99241.34;;;23.56
49154;BMP280;49455;52.252;9.124;2022-08-26T14:22:36;99248.44;;;23.54
49154;BMP280;49455;52.252;9.124;2022-08-26T14:27:37;99245.16;;;23.45
49154;BMP280;49455;52.252;9.124;2022-08-26T14:32:42;99225.28;;;23.35
49154;BMP280;49455;52.252;9.124;2022-08-26T14:37:43;99206.41;;;23.20
49154;BMP280;49455;52.252;9.124;2022-08-26T14:42:48;99208.06;;;23.24
49154;BMP280;49455;52.252;9.124;2022-08-26T14:47:51;99215.59;;;23.07
49154;BMP280;49455;52.252;9.124;2022-08-26T14:52:52;99230.69;;;23.02
49154;BMP280;49455;52.252;9.124;2022-08-26T14:57:52;99219.91;;;22.81
49154;BMP280;49455;52.252;9.124;2022-08-26T15:02:53;99239.44;;;22.41
49154;BMP280;49455;52.252;9.124;2022-08-26T15:07:53;99241.16;;;22.42
49154;BMP280;49455;52.252;9.124;2022-08-26T15:13:00;99246.16;;;22.21
49154;BMP280;49455;52.252;9.124;2022-08-26T15:18:00;99238.97;;;22.26
49154;BMP280;49455;52.252;9.124;2022-08-26T15:23:01;99261.50;;;22.37
49154;BMP280;49455;52.252;9.124;2022-08-26T15:28:01;99271.13;;;22.38
49154;BMP280;49455;52.252;9.124;2022-08-26T15:33:02;99274.72;;;22.67
49154;BMP280;49455;52.252;9.124;2022-08-26T15:38:02;99263.47;;;22.61
49154;BMP280;49455;52.252;9.124;2022-08-26T15:43:03;99271.69;;;22.50
49154;BMP280;49455;52.252;9.124;2022-08-26T15:48:03;99286.91;;;22.38
49154;BMP280;49455;52.252;9.124;2022-08-26T15:53:04;99293.13;;;22.36
49154;BMP280;49455;52.252;9.124;2022-08-26T15:58:04;99306.63;;;22.22
49154;BMP280;49455;52.252;9.124;2022-08-26T16:03:05;99325.28;;;22.14
49154;BMP280;49455;52.252;9.124;2022-08-26T16:08:06;99317.56;;;22.08
49154;BMP280;49455;52.252;9.124;2022-08-26T16:13:08;99313.78;;;22.17
49154;BMP280;49455;52.252;9.124;2022-08-26T16:18:08;99307.72;;;22.14
49154;BMP280;49455;52.252;9.124;2022-08-26T16:23:09;99313.84;;;22.14
49154;BMP280;49455;52.252;9.124;2022-08-26T16:28:10;99312.41;;;22.02
49154;BMP280;49455;52.252;9.124;2022-08-26T16:33:12;99302.44;;;22.15
49154;BMP280;49455;52.252;9.124;2022-08-26T16:38:13;99296.25;;;22.16
49154;BMP280;49455;52.252;9.124;2022-08-26T16:43:13;99289.44;;;22.07
49154;BMP280;49455;52.252;9.124;2022-08-26T16:48:14;99284.34;;;22.01
49154;BMP280;49455;52.252;9.124;2022-08-26T16:53:14;99295.69;;;22.03
49154;BMP280;49455;52.252;9.124;2022-08-26T16:58:16;99301.97;;;21.97
49154;BMP280;49455;52.252;9.124;2022-08-26T17:03:16;99307.53;;;21.85
49154;BMP280;49455;52.252;9.124;2022-08-26T17:08:16;99321.13;;;21.66
49154;BMP280;49455;52.252;9.124;2022-08-26T17:13:17;99327.66;;;21.51
49154;BMP280;49455;52.252;9.124;2022-08-26T17:18:19;99341.94;;;21.38
49154;BMP280;49455;52.252;9.124;2022-08-26T17:23:20;99344.88;;;21.22
49154;BMP280;49455;52.252;9.124;2022-08-26T17:28:21;99346.72;;;21.17
49154;BMP280;49455;52.252;9.124;2022-08-26T17:33:22;99336.56;;;21.00
49154;BMP280;49455;52.252;9.124;2022-08-26T17:38:23;99333.97;;;20.99
49154;BMP280;49455;52.252;9.124;2022-08-26T17:43:25;99329.91;;;20.82
49154;BMP280;49455;52.252;9.124;2022-08-26T17:48:25;99327.53;;;20.70
49154;BMP280;49455;52.252;9.124;2022-08-26T17:53:26;99327.34;;;20.79
49154;BMP280;49455;52.252;9.124;2022-08-26T17:58:26;99319.06;;;20.53
49154;BMP280;49455;52.252;9.124;2022-08-26T18:03:27;99328.59;;;20.60
49154;BMP280;49455;52.252;9.124;2022-08-26T18:08:27;99349.66;;;20.57
49154;BMP280;49455;52.252;9.124;2022-08-26T18:13:28;99349.69;;;20.53
49154;BMP280;49455;52.252;9.124;2022-08-26T18:18:28;99362.13;;;20.42
49154;BMP280;49455;52.252;9.124;2022-08-26T18:23:29;99375.19;;;20.46
49154;BMP280;49455;52.252;9.124;2022-08-26T18:28:29;99384.38;;;20.72
49154;BMP280;49455;52.252;9.124;2022-08-26T18:33:29;99387.13;;;20.65
49154;BMP280;49455;52.252;9.124;2022-08-26T18:38:32;99382.88;;;20.58
49154;BMP280;49455;52.252;9.124;2022-08-26T18:43:32;99389.22;;;20.44
49154;BMP280;49455;52.252;9.124;2022-08-26T18:48:34;99385.56;;;20.55
49154;BMP280;49455;52.252;9.124;2022-08-26T18:53:35;99388.19;;;20.52
49154;BMP280;49455;52.252;9.124;2022-08-26T18:58:35;99389.94;;;20.53
49154;BMP280;49455;52.252;9.124;2022-08-26T19:03:35;99396.97;;;20.51
49154;BMP280;49455;52.252;9.124;2022-08-26T19:08:36;99399.53;;;20.54
49154;BMP280;49455;52.252;9.124;2022-08-26T19:13:36;99408.25;;;20.58
49154;BMP280;49455;52.252;9.124;2022-08-26T19:18:37;99400.50;;;20.49
49154;BMP280;49455;52.252;9.124;2022-08-26T19:23:40;99405.81;;;20.46
49154;BMP280;49455;52.252;9.124;2022-08-26T19:28:41;99401.38;;;20.49
49154;BMP280;49455;52.252;9.124;2022-08-26T19:33:43;99395.47;;;20.37
49154;BMP280;49455;52.252;9.124;2022-08-26T19:38:44;99403.25;;;20.41
49154;BMP280;49455;52.252;9.124;2022-08-26T19:43:46;99405.75;;;20.49
49154;BMP280;49455;52.252;9.124;2022-08-26T19:48:47;99387.66;;;20.32
49154;BMP280;49455;52.252;9.124;2022-08-26T19:53:49;99398.41;;;20.18
49154;BMP280;49455;52.252;9.124;2022-08-26T19:58:50;99400.09;;;20.22
49154;BMP280;49455;52.252;9.124;2022-08-26T20:03:51;99403.56;;;20.24
49154;BMP280;49455;52.252;9.124;2022-08-26T20:08:51;99408.75;;;20.27
49154;BMP280;49455;52.252;9.124;2022-08-26T20:13:52;99415.97;;;20.13
49154;BMP280;49455;52.252;9.124;2022-08-26T20:18:55;99417.69;;;20.14
49154;BMP280;49455;52.252;9.124;2022-08-26T20:24:02;99429.75;;;20.25
49154;BMP280;49455;52.252;9.124;2022-08-26T20:29:05;99420.22;;;20.21
49154;BMP280;49455;52.252;9.124;2022-08-26T20:34:05;99421.28;;;20.10
49154;BMP280;49455;52.252;9.124;2022-08-26T20:39:06;99429.09;;;20.13
49154;BMP280;49455;52.252;9.124;2022-08-26T20:44:07;99423.81;;;20.14
49154;BMP280;49455;52.252;9.124;2022-08-26T20:49:08;99431.88;;;20.01
49154;BMP280;49455;52.252;9.124;2022-08-26T20:54:09;99449.50;;;19.93
49154;BMP280;49455;52.252;9.124;2022-08-26T20:59:10;99458.25;;;19.92
49154;BMP280;49455;52.252;9.124;2022-08-26T21:04:13;99472.28;;;19.88
49154;BMP280;49455;52.252;9.124;2022-08-26T21:09:14;99477.59;;;19.84
49154;BMP280;49455;52.252;9.124;2022-08-26T21:14:15;99483.59;;;19.92
49154;BMP280;49455;52.252;9.124;2022-08-26T21:19:17;99481.84;;;19.92
49154;BMP280;49455;52.252;9.124;2022-08-26T21:24:17;99488.09;;;19.84
49154;BMP280;49455;52.252;9.124;2022-08-26T21:29:18;99490.69;;;19.85
49154;BMP280;49455;52.252;9.124;2022-08-26T21:34:19;99489.72;;;19.92
49154;BMP280;49455;52.252;9.124;2022-08-26T21:39:19;99483.69;;;19.86
49154;BMP280;49455;52.252;9.124;2022-08-26T21:44:20;99484.84;;;19.60
49154;BMP280;49455;52.252;9.124;2022-08-26T21:49:20;99495.41;;;19.54
49154;BMP280;49455;52.252;9.124;2022-08-26T21:54:21;99479.91;;;19.33
49154;BMP280;49455;52.252;9.124;2022-08-26T21:59:21;99488.78;;;19.23
49154;BMP280;49455;52.252;9.124;2022-08-26T22:04:22;99488.66;;;19.34
49154;BMP280;49455;52.252;9.124;2022-08-26T22:09:25;99485.19;;;19.30
49154;BMP280;49455;52.252;9.124;2022-08-26T22:14:26;99487.72;;;19.39
49154;BMP280;49455;52.252;9.124;2022-08-26T22:19:27;99484.31;;;19.30
49154;BMP280;49455;52.252;9.124;2022-08-26T22:24:27;99489.56;;;19.30
49154;BMP280;49455;52.252;9.124;2022-08-26T22:29:28;99495.75;;;19.24
49154;BMP280;49455;52.252;9.124;2022-08-26T22:34:28;99494.81;;;19.30
49154;BMP280;49455;52.252;9.124;2022-08-26T22:39:29;99492.38;;;19.10
49154;BMP280;49455;52.252;9.124;2022-08-26T22:44:30;99495.91;;;19.09
49154;BMP280;49455;52.252;9.124;2022-08-26T22:49:31;99482.66;;;19.20
49154;BMP280;49455;52.252;9.124;2022-08-26T22:54:31;99481.84;;;19.16
49154;BMP280;49455;52.252;9.124;2022-08-26T22:59:31;99484.59;;;19.05
49154;BMP280;49455;52.252;9.124;2022-08-26T23:04:32;99485.53;;;18.98
49154;BMP280;49455;52.252;9.124;2022-08-26T23:09:33;99483.75;;;18.98
49154;BMP280;49455;52.252;9.124;2022-08-26T23:14:33;99496.06;;;18.89
49154;BMP280;49455;52.252;9.124;2022-08-26T23:19:34;99490.81;;;18.89
49154;BMP280;49455;52.252;9.124;2022-08-26T23:24:34;99489.97;;;18.91
49154;BMP280;49455;52.252;9.124;2022-08-26T23:29:34;99480.16;;;19.11
49154;BMP280;49455;52.252;9.124;2022-08-26T23:34:35;99484.53;;;19.09
49154;BMP280;49455;52.252;9.124;2022-08-26T23:39:35;99472.50;;;18.93
49154;BMP280;49455;52.252;9.124;2022-08-26T23:44:36;99472.59;;;18.76
49154;BMP280;49455;52.252;9.124;2022-08-26T23:49:36;99469.16;;;18.71
